Time;durP1;ratioP1;P1;durP2;ratioP2;P2;SDS_P1;SDS_P2;PMS_P1;PMS_P2;Temp;Humidity;BMP_temperature;BMP_pressure;BME280_temperature;BME280_humidity;BME280_pressure;Samples;Min_cycle;Max_cycle;Signal;HPM_P1;HPM_P2
2020/11/12 00:00:41;;;;;;;20.8;14.4;;;;;;;6.6;93.26465;95760.47;;;;
2020/11/12 00:01:41;;;;;;;20.8;14.4;;;;;;;6.6;93.26465;95760.47;;;;
2020/11/12 00:02:42;;;;;;;20.8;14.4;;;;;;;6.6;93.26465;95760.47;;;;
2020/11/12 00:03:42;;;;;;;19.25;12.8;;;;;;;6.58;93.61035;95748.19;;;;
2020/11/12 00:04:43;;;;;;;19.25;12.8;;;;;;;6.58;93.61035;95748.19;;;;
2020/11/12 00:05:44;;;;;;;19.25;12.8;;;;;;;6.58;93.61035;95748.19;;;;
2020/11/12 00:06:44;;;;;;;19.25;12.8;;;;;;;6.58;93.61035;95748.19;;;;
2020/11/12 00:07:45;;;;;;;19.25;12.8;;;;;;;6.58;93.61035;95748.19;;;;
2020/11/12 00:08:45;;;;;;;19.25;12.8;;;;;;;6.58;93.61035;95748.19;;;;
2020/11/12 00:09:46;;;;;;;19.25;12.8;;;;;;;6.58;93.61035;95748.19;;;;
2020/11/12 00:10:46;;;;;;;19.25;12.8;;;;;;;6.58;93.61035;95748.19;;;;
2020/11/12 00:11:47;;;;;;;19.25;12.8;;;;;;;6.58;93.61035;95748.19;;;;
2020/11/12 00:12:47;;;;;;;19.25;12.8;;;;;;;6.58;93.61035;95748.19;;;;
2020/11/12 00:13:48;;;;;;;19.25;12.8;;;;;;;6.58;93.61035;95748.19;;;;
2020/11/12 00:14:49;;;;;;;18.85;12.25;;;;;;;6.53;93.35547;95742.56;;;;
2020/11/12 00:15:49;;;;;;;18.85;12.25;;;;;;;6.53;93.35547;95742.56;;;;
2020/11/12 00:16:50;;;;;;;18.85;12.25;;;;;;;6.53;93.35547;95742.56;;;;
2020/11/12 00:17:50;;;;;;;18.85;12.25;;;;;;;6.53;93.35547;95742.56;;;;
2020/11/12 00:18:51;;;;;;;18.85;12.25;;;;;;;6.53;93.35547;95742.56;;;;
2020/11/12 00:19:51;;;;;;;18.85;12.25;;;;;;;6.53;93.35547;95742.56;;;;
2020/11/12 00:20:52;;;;;;;18.85;12.25;;;;;;;6.53;93.35547;95742.56;;;;
2020/11/12 00:21:52;;;;;;;18.85;12.25;;;;;;;6.53;93.35547;95742.56;;;;
2020/11/12 00:22:53;;;;;;;18.85;12.25;;;;;;;6.53;93.35547;95742.56;;;;
2020/11/12 00:23:54;;;;;;;18.85;12.25;;;;;;;6.53;93.35547;95742.56;;;;
2020/11/12 00:24:54;;;;;;;19.85;12.95;;;;;;;6.51;93.54102;95738.86;;;;
2020/11/12 00:25:55;;;;;;;19.85;12.95;;;;;;;6.51;93.54102;95738.86;;;;
2020/11/12 00:26:55;;;;;;;19.85;12.95;;;;;;;6.51;93.54102;95738.86;;;;
2020/11/12 00:27:56;;;;;;;19.85;12.95;;;;;;;6.51;93.54102;95738.86;;;;
2020/11/12 00:28:56;;;;;;;19.85;12.95;;;;;;;6.51;93.54102;95738.86;;;;
2020/11/12 00:29:57;;;;;;;19.85;12.95;;;;;;;6.51;93.54102;95738.86;;;;
2020/11/12 00:30:57;;;;;;;19.85;12.95;;;;;;;6.51;93.54102;95738.86;;;;
2020/11/12 00:31:58;;;;;;;19.85;12.95;;;;;;;6.51;93.54102;95738.86;;;;
2020/11/12 00:32:58;;;;;;;19.85;12.95;;;;;;;6.51;93.54102;95738.86;;;;
2020/11/12 00:33:59;;;;;;;19.85;12.95;;;;;;;6.51;93.54102;95738.86;;;;
2020/11/12 00:35:00;;;;;;;19.85;12.95;;;;;;;6.51;93.54102;95738.86;;;;
2020/11/12 00:36:00;;;;;;;18.3;12.75;;;;;;;6.43;93.56738;95743.45;;;;
2020/11/12 00:37:01;;;;;;;18.3;12.75;;;;;;;6.43;93.56738;95743.45;;;;
2020/11/12 00:38:01;;;;;;;18.3;12.75;;;;;;;6.43;93.56738;95743.45;;;;
2020/11/12 00:39:02;;;;;;;18.3;12.75;;;;;;;6.43;93.56738;95743.45;;;;
2020/11/12 00:40:03;;;;;;;18.3;12.75;;;;;;;6.43;93.56738;95743.45;;;;
2020/11/12 00:41:04;;;;;;;18.3;12.75;;;;;;;6.43;93.56738;95743.45;;;;
2020/11/12 00:42:04;;;;;;;18.3;12.75;;;;;;;6.43;93.56738;95743.45;;;;
2020/11/12 00:43:05;;;;;;;18.3;12.75;;;;;;;6.43;93.56738;95743.45;;;;
2020/11/12 00:44:05;;;;;;;18.3;12.75;;;;;;;6.43;93.56738;95743.45;;;;
2020/11/12 00:45:06;;;;;;;18.3;12.75;;;;;;;6.43;93.56738;95743.45;;;;
2020/11/12 00:46:07;;;;;;;18.8;13.35;;;;;;;6.39;93.80176;95740.44;;;;
2020/11/12 00:47:07;;;;;;;18.8;13.35;;;;;;;6.39;93.80176;95740.44;;;;
2020/11/12 00:48:08;;;;;;;18.8;13.35;;;;;;;6.39;93.80176;95740.44;;;;
2020/11/12 00:49:08;;;;;;;18.8;13.35;;;;;;;6.39;93.80176;95740.44;;;;
2020/11/12 00:50:09;;;;;;;18.8;13.35;;;;;;;6.39;93.80176;95740.44;;;;
2020/11/12 00:51:09;;;;;;;18.8;13.35;;;;;;;6.39;93.80176;95740.44;;;;
2020/11/12 00:52:13;;;;;;;18.8;13.35;;;;;;;6.39;93.80176;95740.44;;;;
2020/11/12 00:53:14;;;;;;;18.8;13.35;;;;;;;6.39;93.80176;95740.44;;;;
2020/11/12 00:54:14;;;;;;;18.8;13.35;;;;;;;6.39;93.80176;95740.44;;;;
2020/11/12 00:55:15;;;;;;;18.8;13.35;;;;;;;6.39;93.80176;95740.44;;;;
2020/11/12 00:56:15;;;;;;;18.8;13.35;;;;;;;6.39;93.80176;95740.44;;;;
2020/11/12 00:57:16;;;;;;;17.5;12.25;;;;;;;6.34;94.11816;95726.72;;;;
2020/11/12 00:58:16;;;;;;;17.5;12.25;;;;;;;6.34;94.11816;95726.72;;;;
2020/11/12 00:59:17;;;;;;;17.5;12.25;;;;;;;6.34;94.11816;95726.72;;;;
2020/11/12 01:00:17;;;;;;;17.5;12.25;;;;;;;6.34;94.11816;95726.72;;;;
2020/11/12 01:01:18;;;;;;;17.5;12.25;;;;;;;6.34;94.11816;95726.72;;;;
2020/11/12 01:02:19;;;;;;;17.5;12.25;;;;;;;6.34;94.11816;95726.72;;;;
2020/11/12 01:03:19;;;;;;;17.5;12.25;;;;;;;6.34;94.11816;95726.72;;;;
2020/11/12 01:04:19;;;;;;;17.5;12.25;;;;;;;6.34;94.11816;95726.72;;;;
2020/11/12 01:05:20;;;;;;;17.5;12.25;;;;;;;6.34;94.11816;95726.72;;;;
2020/11/12 01:06:21;;;;;;;17.5;12.25;;;;;;;6.34;94.11816;95726.72;;;;
2020/11/12 01:07:21;;;;;;;17.3;12.95;;;;;;;6.31;94.00488;95729.89;;;;
2020/11/12 01:08:22;;;;;;;17.3;12.95;;;;;;;6.31;94.00488;95729.89;;;;
2020/11/12 01:09:22;;;;;;;17.3;12.95;;;;;;;6.31;94.00488;95729.89;;;;
2020/11/12 01:10:23;;;;;;;17.3;12.95;;;;;;;6.31;94.00488;95729.89;;;;
2020/11/12 01:11:23;;;;;;;17.3;12.95;;;;;;;6.31;94.00488;95729.89;;;;
2020/11/12 01:12:24;;;;;;;17.3;12.95;;;;;;;6.31;94.00488;95729.89;;;;
2020/11/12 01:13:24;;;;;;;17.3;12.95;;;;;;;6.31;94.00488;95729.89;;;;
2020/11/12 01:14:26;;;;;;;17.3;12.95;;;;;;;6.31;94.00488;95729.89;;;;
2020/11/12 01:15:27;;;;;;;17.3;12.95;;;;;;;6.31;94.00488;95729.89;;;;
2020/11/12 01:16:27;;;;;;;17.3;12.95;;;;;;;6.31;94.00488;95729.89;;;;
2020/11/12 01:17:28;;;;;;;17.3;12.95;;;;;;;6.31;94.00488;95729.89;;;;
2020/11/12 01:18:28;;;;;;;15.95;11.55;;;;;;;6.26;94.30957;95720.17;;;;
2020/11/12 01:19:29;;;;;;;15.95;11.55;;;;;;;6.26;94.30957;95720.17;;;;
2020/11/12 01:20:30;;;;;;;15.95;11.55;;;;;;;6.26;94.30957;95720.17;;;;
2020/11/12 01:21:30;;;;;;;15.95;11.55;;;;;;;6.26;94.30957;95720.17;;;;
2020/11/12 01:22:31;;;;;;;15.95;11.55;;;;;;;6.26;94.30957;95720.17;;;;
2020/11/12 01:23:31;;;;;;;15.95;11.55;;;;;;;6.26;94.30957;95720.17;;;;
2020/11/12 01:24:31;;;;;;;15.95;11.55;;;;;;;6.26;94.30957;95720.17;;;;
2020/11/12 01:25:32;;;;;;;15.95;11.55;;;;;;;6.26;94.30957;95720.17;;;;
2020/11/12 01:26:32;;;;;;;15.95;11.55;;;;;;;6.26;94.30957;95720.17;;;;
2020/11/12 01:27:33;;;;;;;15.95;11.55;;;;;;;6.26;94.30957;95720.17;;;;
2020/11/12 01:28:33;;;;;;;15.95;11.55;;;;;;;6.26;94.30957;95720.17;;;;
2020/11/12 01:29:34;;;;;;;14.6;9.5;;;;;;;6.14;94.78906;95710.19;;;;
2020/11/12 01:30:34;;;;;;;14.6;9.5;;;;;;;6.14;94.78906;95710.19;;;;
2020/11/12 01:31:35;;;;;;;14.6;9.5;;;;;;;6.14;94.78906;95710.19;;;;
2020/11/12 01:32:35;;;;;;;14.6;9.5;;;;;;;6.14;94.78906;95710.19;;;;
2020/11/12 01:33:36;;;;;;;14.6;9.5;;;;;;;6.14;94.78906;95710.19;;;;
2020/11/12 01:34:36;;;;;;;14.6;9.5;;;;;;;6.14;94.78906;95710.19;;;;
2020/11/12 01:35:37;;;;;;;14.6;9.5;;;;;;;6.14;94.78906;95710.19;;;;
2020/11/12 01:36:37;;;;;;;14.6;9.5;;;;;;;6.14;94.78906;95710.19;;;;
2020/11/12 01:37:38;;;;;;;14.6;9.5;;;;;;;6.14;94.78906;95710.19;;;;
2020/11/12 01:38:39;;;;;;;14.6;9.5;;;;;;;6.14;94.78906;95710.19;;;;
2020/11/12 01:39:39;;;;;;;16.95;11.65;;;;;;;6.04;94.72656;95703.88;;;;
2020/11/12 01:40:40;;;;;;;16.95;11.65;;;;;;;6.04;94.72656;95703.88;;;;
2020/11/12 01:41:45;;;;;;;16.95;11.65;;;;;;;6.04;94.72656;95703.88;;;;
2020/11/12 01:42:45;;;;;;;16.95;11.65;;;;;;;6.04;94.72656;95703.88;;;;
2020/11/12 01:43:46;;;;;;;16.95;11.65;;;;;;;6.04;94.72656;95703.88;;;;
2020/11/12 01:44:47;;;;;;;16.95;11.65;;;;;;;6.04;94.72656;95703.88;;;;
2020/11/12 01:45:47;;;;;;;16.95;11.65;;;;;;;6.04;94.72656;95703.88;;;;
2020/11/12 01:46:48;;;;;;;16.95;11.65;;;;;;;6.04;94.72656;95703.88;;;;
2020/11/12 01:47:49;;;;;;;16.95;11.65;;;;;;;6.04;94.72656;95703.88;;;;
2020/11/12 01:48:51;;;;;;;16.95;11.65;;;;;;;6.04;94.72656;95703.88;;;;
2020/11/12 01:49:54;;;;;;;16.95;11.65;;;;;;;6.04;94.72656;95703.88;;;;
2020/11/12 01:50:55;;;;;;;19.85;11.35;;;;;;;6.04;94.78906;95708.82;;;;
2020/11/12 01:51:55;;;;;;;19.85;11.35;;;;;;;6.04;94.78906;95708.82;;;;
2020/11/12 01:52:58;;;;;;;19.85;11.35;;;;;;;6.04;94.78906;95708.82;;;;
2020/11/12 01:53:58;;;;;;;19.85;11.35;;;;;;;6.04;94.78906;95708.82;;;;
2020/11/12 01:54:59;;;;;;;19.85;11.35;;;;;;;6.04;94.78906;95708.82;;;;
2020/11/12 01:56:00;;;;;;;19.85;11.35;;;;;;;6.04;94.78906;95708.82;;;;
2020/11/12 01:57:01;;;;;;;19.85;11.35;;;;;;;6.04;94.78906;95708.82;;;;
2020/11/12 01:58:02;;;;;;;19.85;11.35;;;;;;;6.04;94.78906;95708.82;;;;
2020/11/12 01:59:03;;;;;;;19.85;11.35;;;;;;;6.04;94.78906;95708.82;;;;
2020/11/12 02:00:04;;;;;;;19.85;11.35;;;;;;;6.04;94.78906;95708.82;;;;
2020/11/12 02:01:07;;;;;;;17.75;12;;;;;;;6.03;94.62695;95700.95;;;;
2020/11/12 02:02:09;;;;;;;17.75;12;;;;;;;6.03;94.62695;95700.95;;;;
2020/11/12 02:03:09;;;;;;;17.75;12;;;;;;;6.03;94.62695;95700.95;;;;
2020/11/12 02:04:11;;;;;;;17.75;12;;;;;;;6.03;94.62695;95700.95;;;;
2020/11/12 02:05:13;;;;;;;17.75;12;;;;;;;6.03;94.62695;95700.95;;;;
2020/11/12 02:06:16;;;;;;;17.75;12;;;;;;;6.03;94.62695;95700.95;;;;
2020/11/12 02:07:17;;;;;;;17.75;12;;;;;;;6.03;94.62695;95700.95;;;;
2020/11/12 02:08:17;;;;;;;17.75;12;;;;;;;6.03;94.62695;95700.95;;;;
2020/11/12 02:09:18;;;;;;;17.75;12;;;;;;;6.03;94.62695;95700.95;;;;
2020/11/12 02:10:18;;;;;;;17.75;12;;;;;;;6.03;94.62695;95700.95;;;;
2020/11/12 02:11:19;;;;;;;18.45;12.05;;;;;;;6.02;94.73242;95697.88;;;;
2020/11/12 02:12:19;;;;;;;18.45;12.05;;;;;;;6.02;94.73242;95697.88;;;;
2020/11/12 02:13:20;;;;;;;18.45;12.05;;;;;;;6.02;94.73242;95697.88;;;;
2020/11/12 02:14:20;;;;;;;18.45;12.05;;;;;;;6.02;94.73242;95697.88;;;;
2020/11/12 02:15:21;;;;;;;18.45;12.05;;;;;;;6.02;94.73242;95697.88;;;;
2020/11/12 02:16:21;;;;;;;18.45;12.05;;;;;;;6.02;94.73242;95697.88;;;;
2020/11/12 02:17:22;;;;;;;18.45;12.05;;;;;;;6.02;94.73242;95697.88;;;;
2020/11/12 02:18:23;;;;;;;18.45;12.05;;;;;;;6.02;94.73242;95697.88;;;;
2020/11/12 02:19:23;;;;;;;18.45;12.05;;;;;;;6.02;94.73242;95697.88;;;;
2020/11/12 02:20:24;;;;;;;18.45;12.05;;;;;;;6.02;94.73242;95697.88;;;;
2020/11/12 02:21:25;;;;;;;18.45;12.05;;;;;;;6.02;94.73242;95697.88;;;;
2020/11/12 02:22:26;;;;;;;16.65;11.25;;;;;;;6.02;94.71191;95682.73;;;;
2020/11/12 02:23:27;;;;;;;16.65;11.25;;;;;;;6.02;94.71191;95682.73;;;;
2020/11/12 02:24:28;;;;;;;16.65;11.25;;;;;;;6.02;94.71191;95682.73;;;;
2020/11/12 02:25:28;;;;;;;16.65;11.25;;;;;;;6.02;94.71191;95682.73;;;;
2020/11/12 02:26:29;;;;;;;16.65;11.25;;;;;;;6.02;94.71191;95682.73;;;;
2020/11/12 02:27:30;;;;;;;16.65;11.25;;;;;;;6.02;94.71191;95682.73;;;;
2020/11/12 02:28:30;;;;;;;16.65;11.25;;;;;;;6.02;94.71191;95682.73;;;;
2020/11/12 02:29:31;;;;;;;16.65;11.25;;;;;;;6.02;94.71191;95682.73;;;;
2020/11/12 02:30:31;;;;;;;16.65;11.25;;;;;;;6.02;94.71191;95682.73;;;;
2020/11/12 02:31:32;;;;;;;16.65;11.25;;;;;;;6.02;94.71191;95682.73;;;;
2020/11/12 02:32:32;;;;;;;16.65;11.25;;;;;;;6.02;94.71191;95682.73;;;;
2020/11/12 02:33:34;;;;;;;14.55;10.2;;;;;;;6.04;94.81836;95681.6;;;;
2020/11/12 02:34:34;;;;;;;14.55;10.2;;;;;;;6.04;94.81836;95681.6;;;;
2020/11/12 02:35:35;;;;;;;14.55;10.2;;;;;;;6.04;94.81836;95681.6;;;;
2020/11/12 02:36:35;;;;;;;14.55;10.2;;;;;;;6.04;94.81836;95681.6;;;;
2020/11/12 02:37:36;;;;;;;14.55;10.2;;;;;;;6.04;94.81836;95681.6;;;;
2020/11/12 02:38:36;;;;;;;14.55;10.2;;;;;;;6.04;94.81836;95681.6;;;;
2020/11/12 02:39:37;;;;;;;14.55;10.2;;;;;;;6.04;94.81836;95681.6;;;;
2020/11/12 02:40:38;;;;;;;14.55;10.2;;;;;;;6.04;94.81836;95681.6;;;;
2020/11/12 02:41:38;;;;;;;14.55;10.2;;;;;;;6.04;94.81836;95681.6;;;;
2020/11/12 02:42:39;;;;;;;14.55;10.2;;;;;;;6.04;94.81836;95681.6;;;;
2020/11/12 02:43:39;;;;;;;21.8;10.85;;;;;;;5.96;94.57031;95679.91;;;;
2020/11/12 02:44:40;;;;;;;21.8;10.85;;;;;;;5.96;94.57031;95679.91;;;;
2020/11/12 02:45:40;;;;;;;21.8;10.85;;;;;;;5.96;94.57031;95679.91;;;;
2020/11/12 02:46:41;;;;;;;21.8;10.85;;;;;;;5.96;94.57031;95679.91;;;;
2020/11/12 02:47:41;;;;;;;21.8;10.85;;;;;;;5.96;94.57031;95679.91;;;;
2020/11/12 02:48:42;;;;;;;21.8;10.85;;;;;;;5.96;94.57031;95679.91;;;;
2020/11/12 02:49:47;;;;;;;21.8;10.85;;;;;;;5.96;94.57031;95679.91;;;;
2020/11/12 02:50:47;;;;;;;21.8;10.85;;;;;;;5.96;94.57031;95679.91;;;;
2020/11/12 02:51:48;;;;;;;21.8;10.85;;;;;;;5.96;94.57031;95679.91;;;;
2020/11/12 02:52:48;;;;;;;21.8;10.85;;;;;;;5.96;94.57031;95679.91;;;;
2020/11/12 02:53:49;;;;;;;21.8;10.85;;;;;;;5.96;94.57031;95679.91;;;;
2020/11/12 02:54:50;;;;;;;16.6;10.75;;;;;;;5.86;94.48535;95676.85;;;;
2020/11/12 02:55:50;;;;;;;16.6;10.75;;;;;;;5.86;94.48535;95676.85;;;;
2020/11/12 02:56:51;;;;;;;16.6;10.75;;;;;;;5.86;94.48535;95676.85;;;;
2020/11/12 02:57:52;;;;;;;16.6;10.75;;;;;;;5.86;94.48535;95676.85;;;;
2020/11/12 02:58:52;;;;;;;16.6;10.75;;;;;;;5.86;94.48535;95676.85;;;;
2020/11/12 02:59:52;;;;;;;16.6;10.75;;;;;;;5.86;94.48535;95676.85;;;;
2020/11/12 03:00:53;;;;;;;16.6;10.75;;;;;;;5.86;94.48535;95676.85;;;;
2020/11/12 03:01:53;;;;;;;16.6;10.75;;;;;;;5.86;94.48535;95676.85;;;;
2020/11/12 03:02:54;;;;;;;16.6;10.75;;;;;;;5.86;94.48535;95676.85;;;;
2020/11/12 03:03:54;;;;;;;16.6;10.75;;;;;;;5.86;94.48535;95676.85;;;;
2020/11/12 03:04:55;;;;;;;20.3;12.5;;;;;;;5.78;94.69824;95673.78;;;;
2020/11/12 03:05:56;;;;;;;20.3;12.5;;;;;;;5.78;94.69824;95673.78;;;;
2020/11/12 03:06:56;;;;;;;20.3;12.5;;;;;;;5.78;94.69824;95673.78;;;;
2020/11/12 03:07:57;;;;;;;20.3;12.5;;;;;;;5.78;94.69824;95673.78;;;;
2020/11/12 03:08:57;;;;;;;20.3;12.5;;;;;;;5.78;94.69824;95673.78;;;;
2020/11/12 03:09:58;;;;;;;20.3;12.5;;;;;;;5.78;94.69824;95673.78;;;;
2020/11/12 03:10:58;;;;;;;20.3;12.5;;;;;;;5.78;94.69824;95673.78;;;;
2020/11/12 03:11:59;;;;;;;20.3;12.5;;;;;;;5.78;94.69824;95673.78;;;;
2020/11/12 03:12:59;;;;;;;20.3;12.5;;;;;;;5.78;94.69824;95673.78;;;;
2020/11/12 03:14:00;;;;;;;20.3;12.5;;;;;;;5.78;94.69824;95673.78;;;;
2020/11/12 03:15:02;;;;;;;20.3;12.5;;;;;;;5.78;94.69824;95673.78;;;;
2020/11/12 03:16:03;;;;;;;25.65;11.95;;;;;;;5.71;94.95703;95679.61;;;;
2020/11/12 03:17:04;;;;;;;25.65;11.95;;;;;;;5.71;94.95703;95679.61;;;;
2020/11/12 03:18:04;;;;;;;25.65;11.95;;;;;;;5.71;94.95703;95679.61;;;;
2020/11/12 03:19:05;;;;;;;25.65;11.95;;;;;;;5.71;94.95703;95679.61;;;;
2020/11/12 03:20:05;;;;;;;25.65;11.95;;;;;;;5.71;94.95703;95679.61;;;;
2020/11/12 03:21:06;;;;;;;25.65;11.95;;;;;;;5.71;94.95703;95679.61;;;;
2020/11/12 03:22:07;;;;;;;25.65;11.95;;;;;;;5.71;94.95703;95679.61;;;;
2020/11/12 03:23:07;;;;;;;25.65;11.95;;;;;;;5.71;94.95703;95679.61;;;;
2020/11/12 03:24:08;;;;;;;25.65;11.95;;;;;;;5.71;94.95703;95679.61;;;;
2020/11/12 03:25:08;;;;;;;25.65;11.95;;;;;;;5.71;94.95703;95679.61;;;;
2020/11/12 03:26:10;;;;;;;18.4;11.35;;;;;;;5.69;95.10156;95677.13;;;;
2020/11/12 03:27:12;;;;;;;18.4;11.35;;;;;;;5.69;95.10156;95677.13;;;;
2020/11/12 03:28:13;;;;;;;18.4;11.35;;;;;;;5.69;95.10156;95677.13;;;;
2020/11/12 03:29:13;;;;;;;18.4;11.35;;;;;;;5.69;95.10156;95677.13;;;;
2020/11/12 03:30:14;;;;;;;18.4;11.35;;;;;;;5.69;95.10156;95677.13;;;;
2020/11/12 03:31:14;;;;;;;18.4;11.35;;;;;;;5.69;95.10156;95677.13;;;;
2020/11/12 03:32:17;;;;;;;18.4;11.35;;;;;;;5.69;95.10156;95677.13;;;;
2020/11/12 03:33:17;;;;;;;18.4;11.35;;;;;;;5.69;95.10156;95677.13;;;;
2020/11/12 03:34:18;;;;;;;18.4;11.35;;;;;;;5.69;95.10156;95677.13;;;;
2020/11/12 03:35:18;;;;;;;18.4;11.35;;;;;;;5.69;95.10156;95677.13;;;;
2020/11/12 03:36:19;;;;;;;18.4;11.35;;;;;;;5.69;95.10156;95677.13;;;;
2020/11/12 03:37:19;;;;;;;17.85;10.75;;;;;;;5.69;95.46777;95674.03;;;;
2020/11/12 03:38:20;;;;;;;17.85;10.75;;;;;;;5.69;95.46777;95674.03;;;;
2020/11/12 03:39:20;;;;;;;17.85;10.75;;;;;;;5.69;95.46777;95674.03;;;;
2020/11/12 03:40:21;;;;;;;17.85;10.75;;;;;;;5.69;95.46777;95674.03;;;;
2020/11/12 03:41:21;;;;;;;17.85;10.75;;;;;;;5.69;95.46777;95674.03;;;;
2020/11/12 03:42:22;;;;;;;17.85;10.75;;;;;;;5.69;95.46777;95674.03;;;;
2020/11/12 03:43:23;;;;;;;17.85;10.75;;;;;;;5.69;95.46777;95674.03;;;;
2020/11/12 03:44:23;;;;;;;17.85;10.75;;;;;;;5.69;95.46777;95674.03;;;;
2020/11/12 03:45:24;;;;;;;17.85;10.75;;;;;;;5.69;95.46777;95674.03;;;;
2020/11/12 03:46:24;;;;;;;17.85;10.75;;;;;;;5.69;95.46777;95674.03;;;;
2020/11/12 03:47:25;;;;;;;23.1;10.5;;;;;;;5.68;95.06836;95675.08;;;;
2020/11/12 03:48:25;;;;;;;23.1;10.5;;;;;;;5.68;95.06836;95675.08;;;;
2020/11/12 03:49:26;;;;;;;23.1;10.5;;;;;;;5.68;95.06836;95675.08;;;;
2020/11/12 03:50:26;;;;;;;23.1;10.5;;;;;;;5.68;95.06836;95675.08;;;;
2020/11/12 03:51:27;;;;;;;23.1;10.5;;;;;;;5.68;95.06836;95675.08;;;;
2020/11/12 03:52:27;;;;;;;23.1;10.5;;;;;;;5.68;95.06836;95675.08;;;;
2020/11/12 03:53:28;;;;;;;23.1;10.5;;;;;;;5.68;95.06836;95675.08;;;;
2020/11/12 03:54:28;;;;;;;23.1;10.5;;;;;;;5.68;95.06836;95675.08;;;;
2020/11/12 03:55:29;;;;;;;23.1;10.5;;;;;;;5.68;95.06836;95675.08;;;;
2020/11/12 03:56:29;;;;;;;23.1;10.5;;;;;;;5.68;95.06836;95675.08;;;;
2020/11/12 03:57:30;;;;;;;23.1;10.5;;;;;;;5.68;95.06836;95675.08;;;;
2020/11/12 03:58:30;;;;;;;16.05;9.400001;;;;;;;5.65;95.34375;95666.99;;;;
2020/11/12 03:59:31;;;;;;;16.05;9.400001;;;;;;;5.65;95.34375;95666.99;;;;
2020/11/12 04:00:31;;;;;;;16.05;9.400001;;;;;;;5.65;95.34375;95666.99;;;;
2020/11/12 04:01:32;;;;;;;16.05;9.400001;;;;;;;5.65;95.34375;95666.99;;;;
2020/11/12 04:02:32;;;;;;;16.05;9.400001;;;;;;;5.65;95.34375;95666.99;;;;
2020/11/12 04:03:33;;;;;;;16.05;9.400001;;;;;;;5.65;95.34375;95666.99;;;;
2020/11/12 04:04:33;;;;;;;16.05;9.400001;;;;;;;5.65;95.34375;95666.99;;;;
2020/11/12 04:05:34;;;;;;;16.05;9.400001;;;;;;;5.65;95.34375;95666.99;;;;
2020/11/12 04:06:34;;;;;;;16.05;9.400001;;;;;;;5.65;95.34375;95666.99;;;;
2020/11/12 04:07:35;;;;;;;16.05;9.400001;;;;;;;5.65;95.34375;95666.99;;;;
2020/11/12 04:08:35;;;;;;;16.05;9.400001;;;;;;;5.65;95.34375;95666.99;;;;
2020/11/12 04:09:36;;;;;;;21.45;12.55;;;;;;;5.63;95.36914;95665.97;;;;
2020/11/12 04:10:36;;;;;;;21.45;12.55;;;;;;;5.63;95.36914;95665.97;;;;
2020/11/12 04:11:37;;;;;;;21.45;12.55;;;;;;;5.63;95.36914;95665.97;;;;
2020/11/12 04:12:37;;;;;;;21.45;12.55;;;;;;;5.63;95.36914;95665.97;;;;
2020/11/12 04:13:38;;;;;;;21.45;12.55;;;;;;;5.63;95.36914;95665.97;;;;
2020/11/12 04:14:38;;;;;;;21.45;12.55;;;;;;;5.63;95.36914;95665.97;;;;
2020/11/12 04:15:39;;;;;;;21.45;12.55;;;;;;;5.63;95.36914;95665.97;;;;
2020/11/12 04:16:40;;;;;;;21.45;12.55;;;;;;;5.63;95.36914;95665.97;;;;
2020/11/12 04:17:40;;;;;;;21.45;12.55;;;;;;;5.63;95.36914;95665.97;;;;
2020/11/12 04:18:43;;;;;;;21.45;12.55;;;;;;;5.63;95.36914;95665.97;;;;
2020/11/12 04:19:44;;;;;;;22.45;11.8;;;;;;;5.59;95.58398;95665.12;;;;
2020/11/12 04:20:44;;;;;;;22.45;11.8;;;;;;;5.59;95.58398;95665.12;;;;
2020/11/12 04:21:45;;;;;;;22.45;11.8;;;;;;;5.59;95.58398;95665.12;;;;
2020/11/12 04:22:45;;;;;;;22.45;11.8;;;;;;;5.59;95.58398;95665.12;;;;
2020/11/12 04:23:46;;;;;;;22.45;11.8;;;;;;;5.59;95.58398;95665.12;;;;
2020/11/12 04:24:46;;;;;;;22.45;11.8;;;;;;;5.59;95.58398;95665.12;;;;
2020/11/12 04:25:47;;;;;;;22.45;11.8;;;;;;;5.59;95.58398;95665.12;;;;
2020/11/12 04:26:47;;;;;;;22.45;11.8;;;;;;;5.59;95.58398;95665.12;;;;
2020/11/12 04:27:48;;;;;;;22.45;11.8;;;;;;;5.59;95.58398;95665.12;;;;
2020/11/12 04:28:48;;;;;;;22.45;11.8;;;;;;;5.59;95.58398;95665.12;;;;
2020/11/12 04:29:49;;;;;;;22.45;11.8;;;;;;;5.59;95.58398;95665.12;;;;
2020/11/12 04:30:49;;;;;;;21.9;11.05;;;;;;;5.52;95.95801;95663.72;;;;
2020/11/12 04:31:50;;;;;;;21.9;11.05;;;;;;;5.52;95.95801;95663.72;;;;
2020/11/12 04:32:50;;;;;;;21.9;11.05;;;;;;;5.52;95.95801;95663.72;;;;
2020/11/12 04:33:51;;;;;;;21.9;11.05;;;;;;;5.52;95.95801;95663.72;;;;
2020/11/12 04:34:51;;;;;;;21.9;11.05;;;;;;;5.52;95.95801;95663.72;;;;
2020/11/12 04:35:52;;;;;;;21.9;11.05;;;;;;;5.52;95.95801;95663.72;;;;
2020/11/12 04:36:53;;;;;;;21.9;11.05;;;;;;;5.52;95.95801;95663.72;;;;
2020/11/12 04:37:53;;;;;;;21.9;11.05;;;;;;;5.52;95.95801;95663.72;;;;
2020/11/12 04:38:54;;;;;;;21.9;11.05;;;;;;;5.52;95.95801;95663.72;;;;
2020/11/12 04:39:54;;;;;;;21.9;11.05;;;;;;;5.52;95.95801;95663.72;;;;
2020/11/12 04:40:55;;;;;;;22.15;11.65;;;;;;;5.51;96.21484;95647.42;;;;
2020/11/12 04:41:57;;;;;;;22.15;11.65;;;;;;;5.51;96.21484;95647.42;;;;
2020/11/12 04:42:59;;;;;;;22.15;11.65;;;;;;;5.51;96.21484;95647.42;;;;
2020/11/12 04:44:10;;;;;;;22.15;11.65;;;;;;;5.51;96.21484;95647.42;;;;
2020/11/12 04:45:17;;;;;;;22.15;11.65;;;;;;;5.51;96.21484;95647.42;;;;
2020/11/12 04:46:22;;;;;;;22.15;11.65;;;;;;;5.51;96.21484;95647.42;;;;
2020/11/12 04:47:28;;;;;;;22.15;11.65;;;;;;;5.51;96.21484;95647.42;;;;
2020/11/12 04:48:32;;;;;;;22.15;11.65;;;;;;;5.51;96.21484;95647.42;;;;
2020/11/12 04:49:33;;;;;;;22.15;11.65;;;;;;;5.51;96.21484;95647.42;;;;
2020/11/12 04:50:39;;;;;;;22.15;11.65;;;;;;;5.51;96.21484;95647.42;;;;
2020/11/12 04:51:58;;;;;;;29.15;12.75;;;;;;;5.53;96.11719;95656.02;;;;
2020/11/12 04:53:05;;;;;;;29.15;12.75;;;;;;;5.53;96.11719;95656.02;;;;
2020/11/12 04:54:14;;;;;;;29.15;12.75;;;;;;;5.53;96.11719;95656.02;;;;
2020/11/12 04:55:14;;;;;;;29.15;12.75;;;;;;;5.53;96.11719;95656.02;;;;
2020/11/12 04:56:29;;;;;;;29.15;12.75;;;;;;;5.53;96.11719;95656.02;;;;
2020/11/12 04:57:38;;;;;;;29.15;12.75;;;;;;;5.53;96.11719;95656.02;;;;
2020/11/12 04:58:39;;;;;;;29.15;12.75;;;;;;;5.53;96.11719;95656.02;;;;
2020/11/12 04:59:48;;;;;;;29.15;12.75;;;;;;;5.53;96.11719;95656.02;;;;
2020/11/12 05:00:51;;;;;;;29.15;12.75;;;;;;;5.53;96.11719;95656.02;;;;
2020/11/12 05:01:54;;;;;;;29.15;12.75;;;;;;;5.53;96.11719;95656.02;;;;
2020/11/12 05:02:56;;;;;;;25.05;13.3;;;;;;;5.56;96.04883;95665.1;;;;
2020/11/12 05:03:57;;;;;;;25.05;13.3;;;;;;;5.56;96.04883;95665.1;;;;
2020/11/12 05:04:58;;;;;;;25.05;13.3;;;;;;;5.56;96.04883;95665.1;;;;
2020/11/12 05:05:59;;;;;;;25.05;13.3;;;;;;;5.56;96.04883;95665.1;;;;
2020/11/12 05:06:59;;;;;;;25.05;13.3;;;;;;;5.56;96.04883;95665.1;;;;
2020/11/12 05:08:05;;;;;;;25.05;13.3;;;;;;;5.56;96.04883;95665.1;;;;
2020/11/12 05:09:06;;;;;;;25.05;13.3;;;;;;;5.56;96.04883;95665.1;;;;
2020/11/12 05:10:19;;;;;;;25.05;13.3;;;;;;;5.56;96.04883;95665.1;;;;
2020/11/12 05:11:21;;;;;;;25.05;13.3;;;;;;;5.56;96.04883;95665.1;;;;
2020/11/12 05:12:26;;;;;;;25.05;13.3;;;;;;;5.56;96.04883;95665.1;;;;
2020/11/12 05:13:30;;;;;;;24.85;14.15;;;;;;;5.6;96.19336;95650.69;;;;
2020/11/12 05:14:30;;;;;;;24.85;14.15;;;;;;;5.6;96.19336;95650.69;;;;
2020/11/12 05:15:32;;;;;;;24.85;14.15;;;;;;;5.6;96.19336;95650.69;;;;
2020/11/12 05:16:33;;;;;;;24.85;14.15;;;;;;;5.6;96.19336;95650.69;;;;
2020/11/12 05:17:33;;;;;;;24.85;14.15;;;;;;;5.6;96.19336;95650.69;;;;
2020/11/12 05:18:34;;;;;;;24.85;14.15;;;;;;;5.6;96.19336;95650.69;;;;
2020/11/12 05:19:35;;;;;;;24.85;14.15;;;;;;;5.6;96.19336;95650.69;;;;
2020/11/12 05:20:35;;;;;;;24.85;14.15;;;;;;;5.6;96.19336;95650.69;;;;
2020/11/12 05:21:39;;;;;;;24.85;14.15;;;;;;;5.6;96.19336;95650.69;;;;
2020/11/12 05:22:50;;;;;;;24.85;14.15;;;;;;;5.6;96.19336;95650.69;;;;
2020/11/12 05:23:58;;;;;;;27.25;14.95;;;;;;;5.65;96.35254;95650;;;;
2020/11/12 05:25:00;;;;;;;27.25;14.95;;;;;;;5.65;96.35254;95650;;;;
2020/11/12 05:26:00;;;;;;;27.25;14.95;;;;;;;5.65;96.35254;95650;;;;
2020/11/12 05:27:09;;;;;;;27.25;14.95;;;;;;;5.65;96.35254;95650;;;;
2020/11/12 05:28:18;;;;;;;27.25;14.95;;;;;;;5.65;96.35254;95650;;;;
2020/11/12 05:29:23;;;;;;;27.25;14.95;;;;;;;5.65;96.35254;95650;;;;
2020/11/12 05:30:23;;;;;;;27.25;14.95;;;;;;;5.65;96.35254;95650;;;;
2020/11/12 05:31:27;;;;;;;27.25;14.95;;;;;;;5.65;96.35254;95650;;;;
2020/11/12 05:32:28;;;;;;;27.25;14.95;;;;;;;5.65;96.35254;95650;;;;
2020/11/12 05:33:36;;;;;;;27.25;14.95;;;;;;;5.65;96.35254;95650;;;;
2020/11/12 05:34:48;;;;;;;25.5;14.3;;;;;;;5.69;96.58398;95640.97;;;;
2020/11/12 05:35:52;;;;;;;25.5;14.3;;;;;;;5.69;96.58398;95640.97;;;;
2020/11/12 05:37:04;;;;;;;25.5;14.3;;;;;;;5.69;96.58398;95640.97;;;;
2020/11/12 05:38:06;;;;;;;25.5;14.3;;;;;;;5.69;96.58398;95640.97;;;;
2020/11/12 05:39:43;;;;;;;25.5;14.3;;;;;;;5.69;96.58398;95640.97;;;;
2020/11/12 05:41:56;;;;;;;25.5;14.3;;;;;;;5.69;96.58398;95640.97;;;;
2020/11/12 05:43:19;;;;;;;25.5;14.3;;;;;;;5.69;96.58398;95640.97;;;;
2020/11/12 05:44:32;;;;;;;25.5;14.3;;;;;;;5.69;96.58398;95640.97;;;;
2020/11/12 05:45:36;;;;;;;29.95;16.1;;;;;;;5.76;96.49414;95670.88;;;;
2020/11/12 05:46:38;;;;;;;29.95;16.1;;;;;;;5.76;96.49414;95670.88;;;;
2020/11/12 05:47:48;;;;;;;29.95;16.1;;;;;;;5.76;96.49414;95670.88;;;;
2020/11/12 05:48:59;;;;;;;29.95;16.1;;;;;;;5.76;96.49414;95670.88;;;;